Time;durP1;ratioP1;P1;durP2;ratioP2;P2;SDS_P1;SDS_P2;PMS_P1;PMS_P2;Temp;Humidity;BMP_temperature;BMP_pressure;BME280_temperature;BME280_humidity;BME280_pressure;Samples;Min_cycle;Max_cycle;Signal;HPM_P1;HPM_P2
2023/09/05 00:00:10;;;;;;;10.57;8.40;;;;;;;13.17;100.00;102199.75;5031406;28;20025;-80
2023/09/05 00:02:37;;;;;;;11.40;8.45;;;;;;;13.16;100.00;102195.38;5032549;28;20087;-80
2023/09/05 00:05:05;;;;;;;11.80;8.27;;;;;;;13.14;100.00;102192.84;5032046;28;20029;-80
2023/09/05 00:07:31;;;;;;;10.52;7.60;;;;;;;13.13;100.00;102198.28;5031228;28;20386;-80
2023/09/05 00:09:58;;;;;;;10.50;7.50;;;;;;;13.10;100.00;102187.84;5031839;28;20130;-80
2023/09/05 00:12:23;;;;;;;10.93;8.48;;;;;;;13.10;100.00;102188.69;5032443;28;20034;-80
2023/09/05 00:14:49;;;;;;;10.65;7.78;;;;;;;13.08;100.00;102190.66;5032330;28;20037;-80
2023/09/05 00:17:14;;;;;;;8.57;6.60;;;;;;;13.05;100.00;102181.06;5014624;28;20061;-79
2023/09/05 00:19:39;;;;;;;10.15;8.02;;;;;;;13.05;100.00;102182.88;5032375;28;20040;-79
2023/09/05 00:22:05;;;;;;;9.32;7.80;;;;;;;13.06;100.00;102173.88;5030701;28;20044;-80
2023/09/05 00:24:33;;;;;;;9.93;7.13;;;;;;;13.03;100.00;102175.00;5032536;28;20120;-80
2023/09/05 00:27:03;;;;;;;8.70;7.18;;;;;;;13.04;100.00;102179.34;5032011;28;20025;-80
2023/09/05 00:29:30;;;;;;;9.43;8.07;;;;;;;13.04;100.00;102175.84;5031258;28;20044;-80
2023/09/05 00:31:59;;;;;;;10.00;7.63;;;;;;;13.07;100.00;102182.75;5032141;28;20079;-80
2023/09/05 00:34:32;;;;;;;8.35;7.45;;;;;;;13.04;100.00;102175.84;5031015;28;20528;-80
2023/09/05 00:36:58;;;;;;;10.43;7.40;;;;;;;13.03;100.00;102169.66;5031911;28;20113;-80
2023/09/05 00:39:43;;;;;;;9.55;7.28;;;;;;;13.03;100.00;102166.09;5032361;28;20038;-80
2023/09/05 00:42:10;;;;;;;12.65;7.82;;;;;;;13.01;100.00;102165.38;5031949;28;20037;-80
2023/09/05 00:44:36;;;;;;;16.17;7.53;;;;;;;13.01;100.00;102168.91;5032289;28;20033;-80
2023/09/05 00:47:04;;;;;;;12.00;8.68;;;;;;;13.01;100.00;102163.56;5031908;28;20038;-80
2023/09/05 00:49:38;;;;;;;9.60;8.02;;;;;;;13.00;100.00;102169.91;5030710;28;20037;-79
2023/09/05 00:52:05;;;;;;;8.25;6.90;;;;;;;12.96;100.00;102162.25;5031689;28;20060;-80
2023/09/05 00:54:30;;;;;;;11.18;7.70;;;;;;;12.94;100.00;102154.34;5032233;28;20038;-80
2023/09/05 00:56:57;;;;;;;8.90;6.80;;;;;;;12.92;100.00;102155.44;5031675;28;20481;-80
2023/09/05 00:59:22;;;;;;;11.70;7.72;;;;;;;12.88;100.00;102157.50;5032276;28;20050;-80
2023/09/05 01:01:48;;;;;;;10.73;8.00;;;;;;;12.90;100.00;102154.69;5030443;28;20033;-80
2023/09/05 01:04:14;;;;;;;10.02;8.43;;;;;;;12.90;100.00;102152.03;5031937;28;20021;-80
2023/09/05 01:07:00;;;;;;;10.27;8.23;;;;;;;12.87;100.00;102153.16;5030924;28;20112;-80
2023/09/05 01:09:45;;;;;;;12.27;8.05;;;;;;;12.85;100.00;102150.59;5032430;28;20025;-80
2023/09/05 01:12:11;;;;;;;9.48;7.22;;;;;;;12.84;100.00;102145.38;5031772;28;20034;-80
2023/09/05 01:14:36;;;;;;;10.95;7.57;;;;;;;12.84;100.00;102137.38;5032092;28;20029;-80
2023/09/05 01:17:01;;;;;;;9.50;7.68;;;;;;;12.86;100.00;102143.41;5031666;28;20041;-80
2023/09/05 01:19:29;;;;;;;11.38;8.07;;;;;;;12.85;100.00;102136.38;5031801;28;20069;-80
2023/09/05 01:22:15;;;;;;;12.82;8.05;;;;;;;12.86;100.00;102135.41;5031658;28;20125;-80
2023/09/05 01:24:41;;;;;;;10.23;7.13;;;;;;;12.85;100.00;102126.56;5031760;28;20056;-80
2023/09/05 01:27:08;;;;;;;9.10;7.97;;;;;;;12.94;100.00;102127.63;5031615;28;20068;-80
2023/09/05 01:29:39;;;;;;;11.27;8.23;;;;;;;12.99;100.00;102132.63;5033678;28;20033;-80
2023/09/05 01:32:08;;;;;;;13.77;8.93;;;;;;;13.08;100.00;102128.31;5034139;28;20045;-80
2023/09/05 01:34:33;;;;;;;11.45;7.25;;;;;;;13.08;100.00;102125.66;5036137;28;20044;-80
2023/09/05 01:36:59;;;;;;;10.13;7.97;;;;;;;13.06;100.00;102123.09;5035438;28;20469;-80
2023/09/05 01:39:24;;;;;;;8.88;7.47;;;;;;;13.05;100.00;102116.94;5035477;28;20029;-80
2023/09/05 01:41:50;;;;;;;10.93;7.50;;;;;;;13.03;100.00;102124.22;5035713;28;20481;-80
2023/09/05 01:44:16;;;;;;;9.45;8.07;;;;;;;13.03;100.00;102126.91;5034956;28;20403;-80
2023/09/05 01:46:41;;;;;;;8.20;6.90;;;;;;;13.03;100.00;102128.69;5034316;28;20139;-79
2023/09/05 01:49:07;;;;;;;11.95;7.18;;;;;;;13.01;100.00;102122.66;5035173;28;20458;-80
2023/09/05 01:51:32;;;;;;;8.40;7.32;;;;;;;12.98;100.00;102123.72;5034144;28;20037;-80
2023/09/05 01:53:58;;;;;;;11.57;8.32;;;;;;;12.95;100.00;102118.63;5033315;28;20033;-80
2023/09/05 01:56:23;;;;;;;9.20;7.38;;;;;;;12.94;100.00;102127.63;5035309;28;20034;-79
2023/09/05 01:58:48;;;;;;;9.38;6.65;;;;;;;12.91;100.00;102116.34;5034854;28;20046;-80
2023/09/05 02:01:14;;;;;;;7.60;6.38;;;;;;;12.87;100.00;102124.59;5034248;28;20053;-80
2023/09/05 02:03:39;;;;;;;9.48;7.68;;;;;;;12.84;100.00;102124.00;5034962;28;20163;-80
2023/09/05 02:06:05;;;;;;;8.13;7.30;;;;;;;12.82;100.00;102117.91;5034544;28;20063;-80
2023/09/05 02:08:30;;;;;;;13.48;8.07;;;;;;;12.79;100.00;102127.03;5033672;28;20087;-80
2023/09/05 02:10:55;;;;;;;15.10;7.80;;;;;;;12.74;100.00;102113.19;5034446;28;20037;-80
2023/09/05 02:13:21;;;;;;;8.93;7.03;;;;;;;12.72;100.00;102117.81;5033705;28;20156;-80
2023/09/05 02:15:46;;;;;;;9.75;7.40;;;;;;;12.67;100.00;102120.88;5034698;28;20042;-80
2023/09/05 02:18:11;;;;;;;8.50;7.60;;;;;;;12.63;100.00;102114.06;5034330;28;20025;-80
2023/09/05 02:20:38;;;;;;;8.07;6.55;;;;;;;12.59;100.00;102109.09;5034771;28;20109;-80
2023/09/05 02:23:03;;;;;;;8.65;7.15;;;;;;;12.56;100.00;102104.81;5034291;28;20029;-80
2023/09/05 02:25:29;;;;;;;10.13;8.05;;;;;;;12.54;100.00;102101.44;5033300;28;20039;-79
2023/09/05 02:27:54;;;;;;;10.85;9.02;;;;;;;12.52;100.00;102098.03;5034825;28;20396;-79
2023/09/05 02:30:19;;;;;;;11.85;8.45;;;;;;;12.50;100.00;102092.81;5033829;28;20466;-78
2023/09/05 02:32:49;;;;;;;13.77;9.65;;;;;;;12.50;100.00;102095.47;5034404;28;20033;-79
2023/09/05 02:35:15;;;;;;;13.82;8.55;;;;;;;12.50;100.00;102089.31;5033914;28;20382;-79
2023/09/05 02:37:40;;;;;;;13.40;9.70;;;;;;;12.50;100.00;102091.97;5034359;28;20034;-78
2023/09/05 02:40:06;;;;;;;10.98;8.48;;;;;;;12.52;100.00;102096.22;5032520;28;20064;-79
2023/09/05 02:42:32;;;;;;;12.75;8.98;;;;;;;12.51;100.00;102088.34;5032288;28;20438;-79
2023/09/05 02:44:57;;;;;;;11.52;8.70;;;;;;;12.51;100.00;102091.00;5033945;28;20167;-79
2023/09/05 02:47:22;;;;;;;11.68;9.00;;;;;;;12.52;100.00;102098.03;5034027;28;20175;-79
2023/09/05 02:49:48;;;;;;;10.57;8.20;;;;;;;12.49;100.00;102093.78;5034002;28;20060;-78
2023/09/05 02:52:13;;;;;;;13.00;8.30;;;;;;;12.47;100.00;102095.72;5033620;28;20070;-79
2023/09/05 02:54:39;;;;;;;13.82;9.23;;;;;;;12.45;100.00;102094.13;5034095;28;20042;-81
2023/09/05 02:57:04;;;;;;;11.45;8.30;;;;;;;12.43;100.00;102091.59;5033639;28;20112;-81
2023/09/05 02:59:29;;;;;;;11.55;8.98;;;;;;;12.42;100.00;102099.72;5034143;28;20081;-80
2023/09/05 03:01:55;;;;;;;10.57;8.88;;;;;;;12.41;100.00;102098.03;5032773;28;20030;-80
2023/09/05 03:04:20;;;;;;;11.27;8.25;;;;;;;12.38;100.00;102095.63;5033499;28;20033;-80
2023/09/05 03:06:46;;;;;;;14.65;9.60;;;;;;;12.37;100.00;102091.22;5033635;28;20060;-80
2023/09/05 03:09:12;;;;;;;12.73;9.00;;;;;;;12.37;100.00;102091.22;5033387;28;20038;-81
2023/09/05 03:11:38;;;;;;;10.77;8.30;;;;;;;12.37;100.00;102092.06;5033648;28;20470;-81
2023/09/05 03:14:04;;;;;;;13.00;9.20;;;;;;;12.38;100.00;102082.25;5033098;28;20033;-81
2023/09/05 03:16:29;;;;;;;10.65;8.73;;;;;;;12.37;100.00;102081.41;5032463;28;20371;-81
2023/09/05 03:18:59;;;;;;;10.80;8.50;;;;;;;12.38;100.00;102083.09;5033736;28;20038;-81
2023/09/05 03:21:25;;;;;;;14.00;8.88;;;;;;;12.39;100.00;102081.28;5033025;28;20489;-81
2023/09/05 03:23:51;;;;;;;14.68;9.90;;;;;;;12.41;100.00;102077.53;5033620;28;20033;-81
2023/09/05 03:26:16;;;;;;;13.20;9.02;;;;;;;12.43;100.00;102082.75;5031776;28;20407;-81
2023/09/05 03:28:44;;;;;;;15.32;10.35;;;;;;;12.46;100.00;102082.50;5032457;28;20037;-81
2023/09/05 03:31:10;;;;;;;17.52;9.50;;;;;;;12.49;100.00;102072.41;5033011;28;20041;-81
2023/09/05 03:33:35;;;;;;;11.13;9.25;;;;;;;12.52;100.00;102068.66;5033410;28;20428;-81
2023/09/05 03:36:01;;;;;;;12.90;9.13;;;;;;;12.53;100.00;102073.88;5033351;28;20381;-80
2023/09/05 03:38:26;;;;;;;13.73;9.15;;;;;;;12.52;100.00;102074.88;5032814;28;20044;-80
2023/09/05 03:40:54;;;;;;;15.15;9.73;;;;;;;12.52;100.00;102074.00;5031885;28;20041;-80
2023/09/05 03:43:19;;;;;;;12.38;8.90;;;;;;;12.52;100.00;102074.00;5032700;28;20113;-81
2023/09/05 03:45:48;;;;;;;12.50;8.90;;;;;;;12.49;100.00;102068.91;5031807;28;20474;-81
2023/09/05 03:48:13;;;;;;;10.63;8.13;;;;;;;12.44;100.00;102071.94;5032606;28;20393;-81
2023/09/05 03:50:38;;;;;;;11.18;9.02;;;;;;;12.41;100.00;102061.50;5032936;28;20117;-81
2023/09/05 03:53:04;;;;;;;10.45;7.90;;;;;;;12.39;100.00;102066.13;5032103;28;20048;-81
2023/09/05 03:55:30;;;;;;;12.23;8.75;;;;;;;12.35;100.00;102070.84;5032593;28;20038;-81
2023/09/05 03:57:55;;;;;;;13.60;8.40;;;;;;;12.32;100.00;102068.41;5032557;28;20099;-81
2023/09/05 04:00:20;;;;;;;12.40;8.20;;;;;;;12.28;100.00;102069.63;5031985;28;20055;-81
2023/09/05 04:02:46;;;;;;;13.95;8.80;;;;;;;12.25;100.00;102071.69;5031607;28;20052;-80
2023/09/05 04:05:11;;;;;;;14.70;9.15;;;;;;;12.21;100.00;102065.75;5032112;28;20029;-80
2023/09/05 04:07:37;;;;;;;12.70;9.35;;;;;;;12.17;100.00;102058.97;5032782;28;20068;-80
2023/09/05 04:10:03;;;;;;;13.25;8.93;;;;;;;12.15;100.00;102059.06;5032817;28;20037;-80
2023/09/05 04:12:28;;;;;;;13.00;9.10;;;;;;;12.10;100.00;102058.56;5032422;28;20092;-81
2023/09/05 04:14:54;;;;;;;10.82;8.27;;;;;;;12.10;100.00;102065.72;5032517;28;20438;-80
2023/09/05 04:17:19;;;;;;;15.70;9.88;;;;;;;12.07;100.00;102061.47;5032201;28;20108;-80
2023/09/05 04:19:44;;;;;;;13.48;9.05;;;;;;;12.06;100.00;102065.13;5032612;28;20116;-80
2023/09/05 04:22:10;;;;;;;18.23;9.82;;;;;;;12.03;100.00;102069.84;5030752;28;20069;-80
2023/09/05 04:24:35;;;;;;;12.35;9.45;;;;;;;12.01;100.00;102069.13;5031793;28;20045;-80
2023/09/05 04:27:00;;;;;;;12.63;9.02;;;;;;;11.97;100.00;102066.69;5031164;28;20056;-81
2023/09/05 04:29:26;;;;;;;13.32;9.00;;;;;;;11.94;100.00;102058.06;5031721;28;20034;-81
2023/09/05 04:31:51;;;;;;;13.45;9.05;;;;;;;11.92;100.00;102060.81;5031142;28;20045;-80
2023/09/05 04:34:17;;;;;;;14.43;9.73;;;;;;;11.93;100.00;102057.22;5032292;28;20051;-81
2023/09/05 04:36:42;;;;;;;12.52;9.32;;;;;;;11.90;100.00;102054.75;5032537;28;20029;-80
2023/09/05 04:39:08;;;;;;;12.10;9.00;;;;;;;11.88;100.00;102054.00;5031293;28;20493;-80
2023/09/05 04:41:33;;;;;;;12.98;9.68;;;;;;;11.87;100.00;102055.00;5032033;28;20038;-79
2023/09/05 04:43:59;;;;;;;15.82;10.27;;;;;;;11.87;100.00;102046.13;5032376;28;20466;-80
2023/09/05 04:46:24;;;;;;;20.55;10.05;;;;;;;11.87;100.00;102056.78;5031780;28;20033;-80
2023/09/05 04:48:49;;;;;;;13.63;10.38;;;;;;;11.86;100.00;102055.94;5031471;28;20073;-81
2023/09/05 04:51:15;;;;;;;13.35;9.68;;;;;;;11.86;100.00;102060.44;5031887;28;20037;-81
2023/09/05 04:53:41;;;;;;;18.58;11.13;;;;;;;11.85;100.00;102058.75;5032377;28;20031;-81
2023/09/05 04:56:06;;;;;;;13.23;9.77;;;;;;;11.84;100.00;102068.56;5032253;28;20200;-80
2023/09/05 04:58:33;;;;;;;13.18;8.38;;;;;;;11.83;100.00;102070.38;5031639;28;20064;-80
2023/09/05 05:01:02;;;;;;;12.05;9.13;;;;;;;11.83;100.00;102075.69;5031824;28;20490;-79
2023/09/05 05:03:29;;;;;;;10.27;8.55;;;;;;;11.82;100.00;102062.47;5031697;28;20045;-79
2023/09/05 05:05:55;;;;;;;10.63;9.13;;;;;;;11.79;100.00;102062.72;5036177;28;20045;-79
2023/09/05 05:08:20;;;;;;;12.75;10.05;;;;;;;11.78;100.00;102063.72;5035667;28;20117;-79
2023/09/05 05:10:45;;;;;;;11.75;8.85;;;;;;;11.77;100.00;102065.50;5035812;28;20040;-78
2023/09/05 05:13:11;;;;;;;12.05;8.73;;;;;;;11.75;100.00;102058.59;5036022;28;20036;-80
2023/09/05 05:15:36;;;;;;;16.05;10.73;;;;;;;11.76;100.00;102066.50;5033967;28;20489;-79
2023/09/05 05:18:01;;;;;;;11.85;9.80;;;;;;;11.77;100.00;102062.00;5035631;28;20132;-78
2023/09/05 05:20:27;;;;;;;17.23;10.85;;;;;;;11.77;100.00;102062.00;5035475;28;20053;-78
2023/09/05 05:22:52;;;;;;;13.77;9.95;;;;;;;11.79;100.00;102062.72;5034665;28;20030;-81
2023/09/05 05:25:17;;;;;;;18.35;11.27;;;;;;;11.78;100.00;102056.53;5035982;28;20419;-79
2023/09/05 05:27:43;;;;;;;16.33;10.23;;;;;;;11.82;100.00;102055.34;5035381;28;20029;-79
2023/09/05 05:30:09;;;;;;;13.98;10.32;;;;;;;11.85;100.00;102056.91;5034392;28;20120;-80
2023/09/05 05:32:34;;;;;;;14.23;9.80;;;;;;;11.87;100.00;102057.66;5034168;28;20041;-80
2023/09/05 05:34:59;;;;;;;17.42;11.43;;;;;;;11.89;100.00;102054.88;5035768;28;20075;-81
2023/09/05 05:37:25;;;;;;;15.60;11.85;;;;;;;11.93;100.00;102061.72;5035556;28;20079;-79
2023/09/05 05:39:50;;;;;;;17.60;10.75;;;;;;;11.95;100.00;102065.09;5034533;28;20083;-78
2023/09/05 05:42:16;;;;;;;19.98;12.02;;;;;;;11.99;100.00;102061.25;5035389;28;20037;-79
2023/09/05 05:44:41;;;;;;;14.60;10.98;;;;;;;12.04;100.00;102071.53;5033915;28;20041;-80
2023/09/05 05:47:06;;;;;;;16.88;12.07;;;;;;;12.07;100.00;102072.16;5035292;28;20041;-79
2023/09/05 05:49:32;;;;;;;14.75;10.60;;;;;;;12.11;100.00;102078.13;5035142;28;20061;-79
2023/09/05 05:51:58;;;;;;;18.00;10.85;;;;;;;12.13;100.00;102071.66;5034205;28;20041;-78
2023/09/05 05:54:25;;;;;;;16.48;11.55;;;;;;;12.18;100.00;102073.97;5035042;28;20033;-79
2023/09/05 05:56:57;;;;;;;15.25;10.50;;;;;;;12.24;100.00;102075.31;5035631;28;20029;-78
2023/09/05 05:59:24;;;;;;;15.05;10.98;;;;;;;12.30;100.00;102069.50;5034961;28;20057;-79
2023/09/05 06:01:52;;;;;;;15.05;10.60;;;;;;;12.38;100.00;102067.09;5034060;28;20103;-78
2023/09/05 06:04:18;;;;;;;16.83;10.60;;;;;;;12.44;100.00;102061.25;5035410;28;20083;-79
2023/09/05 06:06:45;;;;;;;16.60;11.15;;;;;;;12.51;100.00;102069.66;5035314;28;20547;-78
2023/09/05 06:09:11;;;;;;;15.80;10.80;;;;;;;12.58;100.00;102086.00;5034928;28;20033;-78
2023/09/05 06:11:36;;;;;;;14.80;10.18;;;;;;;12.63;100.00;102083.81;5033289;28;20045;-79
2023/09/05 06:14:02;;;;;;;14.82;10.45;;;;;;;12.67;100.00;102079.94;5034216;28;20068;-78
2023/09/05 06:16:28;;;;;;;13.75;10.77;;;;;;;12.73;100.00;102076.78;5015882;28;20443;-79
2023/09/05 06:18:53;;;;;;;13.52;10.13;;;;;;;12.76;100.00;102071.19;5033890;28;20029;-79
2023/09/05 06:21:19;;;;;;;14.73;10.80;;;;;;;12.83;100.00;102068.88;5034582;28;20025;-78
2023/09/05 06:23:44;;;;;;;15.07;10.75;;;;;;;12.89;100.00;102081.75;5033940;28;20478;-79
2023/09/05 06:26:09;;;;;;;14.65;10.77;;;;;;;12.97;100.00;102073.97;5033125;28;20109;-79
2023/09/05 06:28:35;;;;;;;14.43;10.00;;;;;;;13.05;100.00;102071.50;5034273;28;20083;-80
2023/09/05 06:31:00;;;;;;;17.10;10.65;;;;;;;13.13;100.00;102062.00;5035005;28;20475;-79
2023/09/05 06:33:26;;;;;;;12.30;9.77;;;;;;;13.21;100.00;102063.09;5033593;28;20041;-77
2023/09/05 06:35:52;;;;;;;14.07;10.13;;;;;;;13.31;100.00;102065.00;5034056;28;20157;-79
2023/09/05 06:38:17;;;;;;;13.70;9.90;;;;;;;13.38;100.00;102064.38;5034494;28;20485;-79
2023/09/05 06:40:43;;;;;;;15.07;10.18;;;;;;;13.48;100.00;102076.97;5033824;28;20033;-79
2023/09/05 06:43:09;;;;;;;14.43;10.40;;;;;;;13.57;100.00;102071.72;5033062;28;20534;-80
2023/09/05 06:45:35;;;;;;;12.00;9.15;;;;;;;13.69;100.00;102074.31;5034046;28;20120;-80
2023/09/05 06:48:00;;;;;;;12.63;9.98;;;;;;;13.79;100.00;102075.25;5033052;28;20116;-79
2023/09/05 06:50:26;;;;;;;12.77;10.00;;;;;;;13.87;100.00;102072.78;5033948;28;20195;-81
2023/09/05 06:52:52;;;;;;;13.20;9.98;;;;;;;13.93;100.00;102072.25;5033816;28;20037;-80
2023/09/05 06:55:17;;;;;;;13.85;11.43;;;;;;;14.03;100.00;102071.47;5034075;28;20065;-80
2023/09/05 06:57:43;;;;;;;14.13;10.50;;;;;;;14.13;100.00;102083.06;5032429;28;20504;-79
2023/09/05 07:00:10;;;;;;;17.33;9.80;;;;;;;14.21;100.00;102077.91;5033667;28;20050;-79
2023/09/05 07:02:35;;;;;;;14.90;9.60;;;;;;;14.33;100.00;102078.69;5033357;28;20034;-80
2023/09/05 07:05:01;;;;;;;14.73;9.70;;;;;;;14.45;100.00;102082.09;5034036;28;20038;-81
2023/09/05 07:07:27;;;;;;;13.73;9.05;;;;;;;14.59;100.00;102076.38;5034029;28;20036;-78
2023/09/05 07:09:53;;;;;;;11.55;8.13;;;;;;;14.74;100.00;102078.72;5033470;28;20033;-80
2023/09/05 07:12:18;;;;;;;12.05;8.25;;;;;;;14.89;100.00;102082.72;5032688;28;20037;-81
2023/09/05 07:14:44;;;;;;;10.40;8.10;;;;;;;15.03;100.00;102078.78;5033414;28;20429;-81
2023/09/05 07:17:09;;;;;;;14.57;7.72;;;;;;;15.12;100.00;102080.66;5016313;28;20033;-81
2023/09/05 07:19:36;;;;;;;8.90;6.75;;;;;;;15.24;100.00;102075.16;5033285;28;20029;-81
2023/09/05 07:22:02;;;;;;;8.60;6.57;;;;;;;15.31;100.00;102074.44;5033376;28;20034;-81
2023/09/05 07:24:27;;;;;;;9.38;6.90;;;;;;;15.45;100.00;102077.69;5033582;28;20033;-81
2023/09/05 07:26:53;;;;;;;13.00;6.65;;;;;;;15.55;100.00;102066.97;5033096;28;20470;-81
2023/09/05 07:29:18;;;;;;;9.27;6.97;;;;;;;15.67;100.00;102073.88;5033603;28;20116;-81
2023/09/05 07:31:44;;;;;;;9.27;6.55;;;;;;;15.79;100.00;102071.94;5031959;28;20509;-79
2023/09/05 07:34:09;;;;;;;12.75;8.07;;;;;;;15.87;100.00;102069.38;5015343;28;20030;-80
2023/09/05 07:36:36;;;;;;;8.52;6.50;;;;;;;15.99;100.00;102064.72;5032753;28;20033;-81
2023/09/05 07:39:03;;;;;;;8.50;6.13;;;;;;;16.09;100.00;102056.59;5033526;28;20104;-79
2023/09/05 07:41:30;;;;;;;9.20;6.15;;;;;;;16.17;100.00;102052.22;5033336;28;20417;-80
2023/09/05 07:43:55;;;;;;;7.40;6.25;;;;;;;16.30;100.00;102051.03;5032875;28;20335;-79
2023/09/05 07:46:21;;;;;;;10.60;5.80;;;;;;;16.45;100.00;102048.69;5033227;28;20034;-79
2023/09/05 07:48:47;;;;;;;7.40;5.65;;;;;;;16.63;100.00;102043.38;5031497;28;20451;-81
2023/09/05 07:51:13;;;;;;;12.50;5.90;;;;;;;16.79;100.00;102040.88;5033161;28;20458;-80
2023/09/05 07:53:38;;;;;;;8.77;5.75;;;;;;;16.95;100.00;102042.09;5031594;28;20044;-80
2023/09/05 07:56:04;;;;;;;9.02;5.78;;;;;;;17.10;100.00;102044.09;5033048;28;20029;-80
2023/09/05 07:58:30;;;;;;;6.28;5.10;;;;;;;17.26;100.00;102034.50;5032886;28;20064;-80
2023/09/05 08:00:56;;;;;;;8.05;5.63;;;;;;;17.43;100.00;102038.19;5031256;28;20029;-80
2023/09/05 08:03:27;;;;;;;6.78;4.95;;;;;;;17.57;100.00;102032.25;5033051;28;20037;-80
2023/09/05 08:05:56;;;;;;;;;;;;;;;17.71;100.00;102032.69;5032900;28;20500;-80
2023/09/05 08:08:21;;;;;;;6.20;5.03;;;;;;;17.91;100.00;102031.50;5031453;28;20353;-79
2023/09/05 08:10:47;;;;;;;6.78;4.85;;;;;;;18.25;100.00;102033.38;5032230;28;20095;-80
2023/09/05 08:13:14;;;;;;;7.78;4.75;;;;;;;18.84;100.00;102029.91;5031465;28;20091;-80
2023/09/05 08:15:41;;;;;;;7.78;4.70;;;;;;;19.33;100.00;102035.41;5032074;28;20031;-79
2023/09/05 08:18:07;;;;;;;7.03;4.22;;;;;;;19.66;100.00;102034.53;5032796;28;20038;-80
2023/09/05 08:20:32;;;;;;;8.40;4.50;;;;;;;19.94;100.00;102034.19;5033043;28;20033;-80
2023/09/05 08:23:00;;;;;;;7.40;4.95;;;;;;;20.15;100.00;102034.44;5031272;28;20033;-79
2023/09/05 08:25:26;;;;;;;10.95;4.85;;;;;;;20.29;100.00;102043.72;5032473;28;20033;-83
2023/09/05 08:27:52;;;;;;;9.63;4.85;;;;;;;20.48;100.00;102047.88;5031926;28;20021;-81
2023/09/05 08:30:17;;;;;;;8.93;4.30;;;;;;;20.67;100.00;102045.78;5032584;28;20087;-85
2023/09/05 08:32:43;;;;;;;7.35;4.35;;;;;;;20.86;100.00;102049.91;5032317;28;20042;-83
2023/09/05 08:35:09;;;;;;;5.97;4.22;;;;;;;21.05;100.00;102045.88;5033036;28;20036;-82
2023/09/05 08:37:36;;;;;;;5.30;3.80;;;;;;;21.31;100.00;102040.13;5031380;28;20039;-80
2023/09/05 08:40:03;;;;;;;5.63;3.80;;;;;;;21.58;100.00;102041.44;5037480;28;20044;-81
2023/09/05 08:42:31;;;;;;;6.45;3.72;;;;;;;21.92;100.00;102039.28;5038128;28;20044;-80
2023/09/05 08:44:59;;;;;;;7.78;4.32;;;;;;;22.28;100.00;102041.25;5038957;28;20191;-80
2023/09/05 08:47:28;;;;;;;8.40;3.97;;;;;;;22.76;100.00;102055.22;5038319;28;20037;-81
2023/09/05 08:49:53;;;;;;;9.60;4.15;;;;;;;23.44;100.00;102052.19;5038003;28;20057;-80
2023/09/05 08:52:20;;;;;;;5.50;4.32;;;;;;;24.13;100.00;102050.63;5039427;28;20122;-80
2023/09/05 08:54:47;;;;;;;7.22;4.10;;;;;;;24.66;100.00;102049.22;5038622;28;20477;-82
2023/09/05 08:57:17;;;;;;;5.38;3.50;;;;;;;25.41;100.00;102057.38;5037981;28;20389;-81
2023/09/05 08:59:42;;;;;;;7.50;3.40;;;;;;;26.19;100.00;102049.34;5039174;28;20129;-81
2023/09/05 09:02:10;;;;;;;8.05;3.63;;;;;;;27.01;91.91;102059.72;5038674;28;20076;-81
2023/09/05 09:04:49;;;;;;;7.75;3.70;;;;;;;27.47;80.18;102067.81;5039045;28;20029;-81
2023/09/05 09:07:14;;;;;;;13.68;3.60;;;;;;;27.88;83.74;102063.66;5039019;28;20429;-82
2023/09/05 09:09:40;;;;;;;11.35;3.20;;;;;;;28.29;80.35;102065.78;5037738;28;20040;-81
2023/09/05 09:12:06;;;;;;;6.72;3.20;;;;;;;28.72;73.54;102058.53;5038865;28;20045;-81
2023/09/05 09:14:32;;;;;;;8.55;3.38;;;;;;;28.92;72.88;102051.94;5038623;28;20117;-83
2023/09/05 09:17:00;;;;;;;6.20;3.50;;;;;;;28.91;72.31;102053.84;5039585;28;20424;-82
2023/09/05 09:19:26;;;;;;;10.45;3.20;;;;;;;29.22;67.60;102057.41;5037726;28;20033;-81
2023/09/05 09:21:51;;;;;;;11.65;3.08;;;;;;;29.30;65.65;102053.50;5038287;28;20493;-82
2023/09/05 09:24:18;;;;;;;6.35;3.08;;;;;;;29.53;63.67;102048.03;5038868;28;20037;-83
2023/09/05 09:26:44;;;;;;;9.07;3.83;;;;;;;29.54;61.42;102046.97;5038736;28;20038;-81
2023/09/05 09:29:10;;;;;;;12.73;3.50;;;;;;;29.53;63.68;102042.56;5037242;28;20094;-83
2023/09/05 09:31:37;;;;;;;4.82;3.42;;;;;;;29.56;63.40;102041.25;5037519;28;20049;-83
2023/09/05 09:34:03;;;;;;;5.10;3.20;;;;;;;29.79;62.71;102036.84;5037288;28;20037;-82
2023/09/05 09:36:37;;;;;;;8.50;3.28;;;;;;;29.95;63.63;102024.31;5039161;28;20033;-81
2023/09/05 09:39:10;;;;;;;5.65;3.33;;;;;;;30.15;61.49;102024.75;5038413;28;20033;-81
2023/09/05 09:41:43;;;;;;;11.30;3.22;;;;;;;30.20;60.81;102021.28;5038844;28;20128;-82
2023/09/05 09:44:08;;;;;;;8.55;3.30;;;;;;;30.37;58.77;102015.88;5038714;28;20033;-81
2023/09/05 09:46:34;;;;;;;6.07;3.10;;;;;;;30.43;60.29;102014.94;5039218;28;20056;-81
2023/09/05 09:49:03;;;;;;;8.15;3.00;;;;;;;30.74;59.92;102016.34;5037477;28;20037;-82
2023/09/05 09:51:32;;;;;;;11.10;3.42;;;;;;;30.86;56.87;102021.78;5034898;28;20394;-81
2023/09/05 09:54:00;;;;;;;6.03;3.53;;;;;;;30.61;57.61;102022.13;5034877;28;20037;-82
2023/09/05 09:56:26;;;;;;;10.00;4.20;;;;;;;30.72;61.71;102012.16;5035133;28;20037;-82
2023/09/05 09:58:55;;;;;;;5.25;3.67;;;;;;;30.75;56.07;102014.41;5035099;28;20049;-81
2023/09/05 10:01:23;;;;;;;6.18;3.42;;;;;;;30.81;59.36;102020.84;5035266;28;20080;-81
2023/09/05 10:03:49;;;;;;;9.02;3.45;;;;;;;31.00;59.07;102016.81;5033673;28;20026;-81
2023/09/05 10:06:16;;;;;;;4.10;2.92;;;;;;;31.14;58.74;102003.56;5033573;28;20041;-81
2023/09/05 10:08:43;;;;;;;7.00;3.42;;;;;;;31.19;59.63;102011.91;5034071;28;20083;-81
2023/09/05 10:11:10;;;;;;;7.82;3.20;;;;;;;31.25;56.94;102002.66;5034666;28;20041;-81
2023/09/05 10:13:36;;;;;;;6.78;3.38;;;;;;;31.30;59.12;102008.22;5035456;28;20386;-81
2023/09/05 10:16:02;;;;;;;9.05;3.40;;;;;;;31.35;53.65;102003.91;5035495;28;20029;-80
2023/09/05 10:18:31;;;;;;;5.40;3.38;;;;;;;31.42;54.85;101990.81;5034140;28;20030;-80
2023/09/05 10:21:00;;;;;;;7.13;3.20;;;;;;;31.73;58.34;102000.38;5035036;28;20065;-80
2023/09/05 10:23:29;;;;;;;5.90;3.88;;;;;;;31.70;54.52;102003.63;5035680;28;20029;-81
2023/09/05 10:25:55;;;;;;;8.75;3.65;;;;;;;31.52;59.42;101998.41;5036354;28;20025;-81
2023/09/05 10:28:20;;;;;;;6.93;3.45;;;;;;;31.47;54.32;101997.25;5035547;28;20033;-80
2023/09/05 10:30:49;;;;;;;6.63;3.20;;;;;;;31.37;55.84;101996.25;5033908;28;20034;-80
2023/09/05 10:33:15;;;;;;;9.77;3.90;;;;;;;31.28;56.29;101995.84;5034565;28;20030;-80
2023/09/05 10:35:44;;;;;;;7.00;3.10;;;;;;;31.43;56.98;101998.00;5033967;28;20036;-80
2023/09/05 10:38:12;;;;;;;4.70;3.47;;;;;;;31.35;55.55;101996.50;5033958;28;20056;-81
2023/09/05 10:40:39;;;;;;;5.95;3.28;;;;;;;31.14;55.65;101984.34;5034483;28;20033;-80
2023/09/05 10:43:07;;;;;;;6.93;3.50;;;;;;;31.23;54.73;101988.34;5034195;28;20184;-80
2023/09/05 10:45:34;;;;;;;13.00;3.25;;;;;;;31.51;56.35;101988.47;5034262;28;20120;-80
2023/09/05 10:48:04;;;;;;;8.80;3.20;;;;;;;31.51;53.41;101992.06;5033999;28;20088;-81
2023/09/05 10:50:30;;;;;;;7.07;3.15;;;;;;;31.53;57.21;101987.16;5034275;28;20480;-79
2023/09/05 10:53:10;;;;;;;8.23;3.08;;;;;;;31.62;56.08;101985.66;5033034;28;20061;-80
2023/09/05 10:55:44;;;;;;;6.05;3.58;;;;;;;31.45;52.32;101980.13;5032768;28;20029;-79
2023/09/05 10:58:53;;;;;;;5.28;3.30;;;;;;;31.39;52.57;101983.91;5033618;28;20091;-80
2023/09/05 11:01:34;;;;;;;7.22;3.45;;;;;;;31.33;61.43;101970.34;5033770;28;20049;-79
2023/09/05 11:04:10;;;;;;;8.98;3.42;;;;;;;31.70;63.36;101976.13;5034403;28;20038;-80
2023/09/05 11:06:42;;;;;;;7.90;3.90;;;;;;;31.72;58.09;101973.94;5034683;28;20026;-80
2023/09/05 11:09:08;;;;;;;6.72;3.67;;;;;;;31.74;59.59;101984.69;5033801;28;20033;-78